createdAt,value
2018-07-19T00:01:06.876Z,2.23
2018-07-19T00:03:34.531Z,2.47
2018-07-19T00:06:02.212Z,2.73
2018-07-19T00:08:29.900Z,2.00
2018-07-19T00:10:57.556Z,3.23
2018-07-19T00:13:25.190Z,4.03
2018-07-19T00:15:52.860Z,2.17
2018-07-19T00:18:24.461Z,3.13
2018-07-19T00:20:52.486Z,3.23
2018-07-19T00:23:20.137Z,2.17
2018-07-19T00:25:47.781Z,3.40
2018-07-19T00:28:15.422Z,3.83
2018-07-19T00:30:43.047Z,3.03
2018-07-19T00:33:10.684Z,3.10
2018-07-19T00:35:38.256Z,3.67
2018-07-19T00:38:05.830Z,4.67
2018-07-19T00:40:33.413Z,3.33
2018-07-19T00:43:01.064Z,2.57
2018-07-19T00:45:28.761Z,4.30
2018-07-19T00:47:56.463Z,3.30
2018-07-19T00:50:24.092Z,4.33
2018-07-19T00:52:51.742Z,2.87
2018-07-19T00:55:19.388Z,5.53
2018-07-19T00:57:46.975Z,3.60
2018-07-19T01:00:14.628Z,4.17
2018-07-19T01:02:42.274Z,4.70
2018-07-19T01:05:09.929Z,3.10
2018-07-19T01:07:37.536Z,7.90
2018-07-19T01:10:05.308Z,2.97
2018-07-19T01:12:32.959Z,3.63
2018-07-19T01:15:00.549Z,4.33
2018-07-19T01:17:28.200Z,3.13
2018-07-19T01:19:55.849Z,4.03
2018-07-19T01:22:23.392Z,4.43
2018-07-19T01:24:51.104Z,3.93
2018-07-19T01:27:18.770Z,5.20
2018-07-19T01:29:46.429Z,4.20
2018-07-19T01:32:14.100Z,8.57
2018-07-19T01:34:41.733Z,3.27
2018-07-19T01:37:09.358Z,5.07
2018-07-19T01:39:37.017Z,3.53
2018-07-19T01:42:16.669Z,3.30
2018-07-19T01:44:44.350Z,3.40
2018-07-19T01:47:12.196Z,4.40
2018-07-19T01:49:41.495Z,5.47
2018-07-19T01:52:09.313Z,4.23
2018-07-19T01:54:37.168Z,3.90
2018-07-19T01:57:05.120Z,7.07
2018-07-19T01:59:32.784Z,3.97
2018-07-19T02:02:00.435Z,4.40
2018-07-19T02:04:28.071Z,4.30
2018-07-19T02:06:55.767Z,4.30
2018-07-19T02:09:23.387Z,4.93
2018-07-19T02:11:51.213Z,5.93
2018-07-19T02:14:18.949Z,4.77
2018-07-19T02:16:46.653Z,6.27
2018-07-19T02:19:14.308Z,7.77
2018-07-19T02:21:42.785Z,5.63
2018-07-19T02:24:10.509Z,5.40
2018-07-19T02:26:38.175Z,7.80
2018-07-19T02:29:06.407Z,4.97
2018-07-19T02:31:34.460Z,6.33
2018-07-19T02:34:02.576Z,8.57
2018-07-19T02:36:30.255Z,9.93
2018-07-19T02:38:57.957Z,5.13
2018-07-19T02:41:25.611Z,9.33
2018-07-19T02:43:53.304Z,4.33
2018-07-19T02:46:20.871Z,7.63
2018-07-19T02:48:48.487Z,5.93
2018-07-19T02:51:16.129Z,6.93
2018-07-19T02:53:43.681Z,12.63
2018-07-19T02:56:11.346Z,6.37
2018-07-19T02:58:38.985Z,7.00
2018-07-19T03:01:06.674Z,7.87
2018-07-19T03:03:34.301Z,8.13
2018-07-19T03:06:02.143Z,7.40
2018-07-19T03:08:29.824Z,6.80
2018-07-19T03:10:57.460Z,8.53
2018-07-19T03:13:25.133Z,5.43
2018-07-19T03:15:52.775Z,5.93
2018-07-19T03:18:20.571Z,7.43
2018-07-19T03:20:48.234Z,5.83
2018-07-19T03:23:15.872Z,5.33
2018-07-19T03:25:43.551Z,7.37
2018-07-19T03:28:11.200Z,6.83
2018-07-19T03:30:38.861Z,6.57
2018-07-19T03:33:06.815Z,7.20
2018-07-19T03:35:34.452Z,7.43
2018-07-19T03:38:02.128Z,6.40
2018-07-19T03:40:29.786Z,7.30
2018-07-19T03:42:57.422Z,7.57
2018-07-19T03:45:25.101Z,6.97
2018-07-19T03:47:52.728Z,7.70
2018-07-19T03:50:20.321Z,8.13
2018-07-19T03:52:47.936Z,6.60
2018-07-19T03:55:15.571Z,7.93
2018-07-19T03:57:43.235Z,9.03
2018-07-19T04:00:10.858Z,8.43
2018-07-19T04:02:38.598Z,12.33
2018-07-19T04:05:06.290Z,8.57
2018-07-19T04:07:33.917Z,9.03
2018-07-19T04:10:01.569Z,10.43
2018-07-19T04:12:29.254Z,7.70
2018-07-19T04:14:56.856Z,11.13
2018-07-19T04:17:24.522Z,9.20
2018-07-19T04:19:52.186Z,10.97
2018-07-19T04:22:19.838Z,8.03
2018-07-19T04:24:47.469Z,11.83
2018-07-19T04:27:15.162Z,8.53
2018-07-19T04:29:42.812Z,7.50
2018-07-19T04:32:10.419Z,9.03
2018-07-19T04:34:38.089Z,9.73
2018-07-19T04:37:05.756Z,9.13
2018-07-19T04:39:33.401Z,12.67
2018-07-19T04:42:01.032Z,11.13
2018-07-19T04:44:28.687Z,8.67
2018-07-19T04:46:57.167Z,10.20
2018-07-19T04:49:25.876Z,9.70
2018-07-19T04:51:53.561Z,7.93
2018-07-19T04:54:21.305Z,15.03
2018-07-19T04:56:48.938Z,9.57
2018-07-19T04:59:16.605Z,7.57
2018-07-19T05:01:44.397Z,10.03
2018-07-19T05:04:11.945Z,10.03
2018-07-19T05:06:39.590Z,9.40
2018-07-19T05:09:08.386Z,11.17
2018-07-19T05:11:36.008Z,12.17
2018-07-19T05:14:04.230Z,9.80
2018-07-19T05:16:32.022Z,15.20
2018-07-19T05:18:59.657Z,10.53
2018-07-19T05:21:27.280Z,12.90
2018-07-19T05:23:54.928Z,7.33
2018-07-19T05:26:22.554Z,11.07
2018-07-19T05:28:50.112Z,13.33
2018-07-19T05:31:17.772Z,11.23
2018-07-19T05:43:37.497Z,20.10
2018-07-19T05:46:05.186Z,16.40
2018-07-19T05:48:32.870Z,19.60
2018-07-19T05:51:00.547Z,33.80
2018-07-19T05:53:28.188Z,30.37
2018-07-19T05:55:55.981Z,39.23
2018-07-19T05:58:23.701Z,30.53
2018-07-19T06:00:51.323Z,33.77
2018-07-19T06:03:19.152Z,36.27
2018-07-19T06:05:46.828Z,34.97
2018-07-19T06:08:14.541Z,37.53
2018-07-19T06:10:42.199Z,29.93
2018-07-19T06:13:10.027Z,35.67
2018-07-19T06:15:37.659Z,36.03
2018-07-19T06:18:05.369Z,31.87
2018-07-19T06:20:33.015Z,32.23
2018-07-19T06:23:00.683Z,26.60
2018-07-19T06:25:28.349Z,31.50
2018-07-19T06:27:56.067Z,28.73
2018-07-19T06:30:23.767Z,28.23
2018-07-19T06:32:51.436Z,28.50
2018-07-19T06:35:19.199Z,30.10
2018-07-19T06:37:46.829Z,29.90
2018-07-19T06:40:14.909Z,29.97
2018-07-19T06:42:42.498Z,24.13
2018-07-19T06:45:10.152Z,24.83
2018-07-19T06:47:37.787Z,19.20
2018-07-19T06:50:05.467Z,19.60
2018-07-19T06:52:33.073Z,19.63
2018-07-19T06:55:00.771Z,20.43
2018-07-19T06:57:28.419Z,21.17
2018-07-19T06:59:56.047Z,22.60
2018-07-19T07:02:23.749Z,20.13
2018-07-19T07:04:51.842Z,21.50
2018-07-19T07:07:19.492Z,23.50
2018-07-19T07:09:47.121Z,25.33
2018-07-19T07:12:15.078Z,25.40
2018-07-19T07:14:42.760Z,23.93
2018-07-19T07:17:10.447Z,24.60
2018-07-19T07:19:38.091Z,25.30
2018-07-19T07:22:05.855Z,21.43
2018-07-19T07:24:34.083Z,28.57
2018-07-19T07:27:01.876Z,27.10
2018-07-19T07:29:29.517Z,23.33
2018-07-19T07:31:57.184Z,20.03
2018-07-19T07:34:24.875Z,25.83
2018-07-19T07:36:52.545Z,19.30
2018-07-19T07:39:20.246Z,28.03
2018-07-19T07:41:47.931Z,22.43
2018-07-19T07:44:15.652Z,20.67
2018-07-19T07:46:43.288Z,19.30
2018-07-19T07:49:10.936Z,19.93
2018-07-19T07:51:38.600Z,19.77
2018-07-19T07:54:06.275Z,19.37
2018-07-19T07:56:33.926Z,17.13
2018-07-19T07:59:01.724Z,20.67
2018-07-19T08:01:29.435Z,14.07
2018-07-19T08:03:57.071Z,14.27
2018-07-19T08:06:24.710Z,15.10
2018-07-19T08:08:52.328Z,13.10
2018-07-19T08:11:20.203Z,16.00
2018-07-19T08:13:47.856Z,12.40
2018-07-19T08:16:15.551Z,17.87
2018-07-19T08:18:43.330Z,12.67
2018-07-19T08:21:11.020Z,15.47
2018-07-19T08:23:38.670Z,11.87
2018-07-19T08:26:06.292Z,16.47
2018-07-19T08:28:33.867Z,14.87
2018-07-19T08:31:01.558Z,13.50
2018-07-19T08:33:29.216Z,10.10
2018-07-19T08:35:56.897Z,12.57
2018-07-19T08:38:24.521Z,8.80
2018-07-19T08:40:52.228Z,8.90
2018-07-19T08:43:19.924Z,8.70
2018-07-19T08:45:47.622Z,11.13
2018-07-19T08:48:15.262Z,4.67
2018-07-19T08:50:42.944Z,9.20
2018-07-19T08:53:10.584Z,11.43
2018-07-19T08:55:38.226Z,9.80
2018-07-19T08:58:05.894Z,11.40
2018-07-19T09:00:33.542Z,9.53
2018-07-19T09:03:01.142Z,11.53
2018-07-19T09:05:28.800Z,8.43
2018-07-19T09:07:56.433Z,7.47
2018-07-19T09:10:24.052Z,7.30
2018-07-19T09:12:51.706Z,10.87
2018-07-19T09:15:19.348Z,10.57
2018-07-19T09:17:47.006Z,11.90
2018-07-19T09:20:14.678Z,7.97
2018-07-19T09:22:42.436Z,10.77
2018-07-19T09:25:10.085Z,9.37
2018-07-19T09:27:37.722Z,8.90
2018-07-19T09:30:06.240Z,10.03
2018-07-19T09:32:34.185Z,8.47
2018-07-19T09:35:01.884Z,8.93
2018-07-19T09:37:29.748Z,7.90
2018-07-19T09:39:57.494Z,9.10
2018-07-19T09:42:25.366Z,9.97
2018-07-19T09:44:53.270Z,7.77
2018-07-19T09:47:21.152Z,14.90
2018-07-19T09:49:48.931Z,7.57
2018-07-19T09:52:16.667Z,11.77
2018-07-19T09:54:51.071Z,8.60
2018-07-19T09:57:19.092Z,9.37
2018-07-19T09:59:46.818Z,5.13
2018-07-19T10:02:14.712Z,5.80
2018-07-19T10:04:42.647Z,6.83
2018-07-19T10:07:10.552Z,7.20
2018-07-19T10:09:38.320Z,9.70
2018-07-19T10:12:06.192Z,9.83
2018-07-19T10:14:33.893Z,8.97
2018-07-19T10:17:01.715Z,8.20
2018-07-19T10:19:29.480Z,7.20
2018-07-19T10:21:57.453Z,8.97
2018-07-19T10:24:25.292Z,7.23
2018-07-19T10:26:53.388Z,7.93
2018-07-19T10:29:21.300Z,12.37
2018-07-19T10:31:49.035Z,13.03
2018-07-19T10:34:16.825Z,10.67
2018-07-19T10:36:44.617Z,9.65
2018-07-19T10:39:12.378Z,9.03
2018-07-19T10:41:40.413Z,8.50
2018-07-19T10:44:08.452Z,10.00
2018-07-19T10:46:36.248Z,8.53
2018-07-19T10:49:04.038Z,12.03
2018-07-19T10:51:31.797Z,11.07
2018-07-19T10:53:59.639Z,7.57
2018-07-19T10:56:27.519Z,7.17
2018-07-19T10:58:55.249Z,8.65
2018-07-19T11:01:23.010Z,12.17
2018-07-19T11:03:50.783Z,19.23
2018-07-19T11:06:18.693Z,9.10
2018-07-19T11:08:46.607Z,8.98
2018-07-19T11:11:14.427Z,11.75
2018-07-19T11:13:42.252Z,9.48
2018-07-19T11:16:10.156Z,11.40
2018-07-19T11:18:37.920Z,10.20
2018-07-19T11:21:05.814Z,11.55
2018-07-19T11:23:33.546Z,13.62
2018-07-19T11:26:01.287Z,10.63
2018-07-19T11:28:29.047Z,10.75
2018-07-19T11:30:56.745Z,16.17
2018-07-19T11:33:24.587Z,11.57
2018-07-19T11:35:52.265Z,11.88
2018-07-19T11:38:20.081Z,9.68
2018-07-19T11:40:47.859Z,8.08
2018-07-19T11:43:15.633Z,9.40
2018-07-19T11:45:43.495Z,9.18
2018-07-19T11:48:11.272Z,9.95
2018-07-19T11:50:39.039Z,9.30
2018-07-19T11:53:06.755Z,12.05
2018-07-19T11:55:34.382Z,11.97
2018-07-19T11:58:02.089Z,9.78
2018-07-19T12:00:29.849Z,18.02
2018-07-19T12:02:57.561Z,9.48
2018-07-19T12:05:25.286Z,10.53
2018-07-19T12:07:52.983Z,10.98
2018-07-19T12:10:20.727Z,13.88
2018-07-19T12:12:48.539Z,10.78
2018-07-19T12:15:16.355Z,8.18
2018-07-19T12:17:44.126Z,8.43
2018-07-19T12:20:11.905Z,11.22
2018-07-19T12:22:39.786Z,9.40
2018-07-19T12:25:12.672Z,14.73
2018-07-19T12:27:40.551Z,7.83
2018-07-19T12:30:08.444Z,13.43
2018-07-19T12:32:36.578Z,12.25
2018-07-19T12:35:10.947Z,15.10
2018-07-19T12:37:38.858Z,9.35
2018-07-19T12:40:06.794Z,8.55
2018-07-19T12:42:34.797Z,10.60
2018-07-19T12:45:02.645Z,9.30
2018-07-19T12:47:30.341Z,8.95
2018-07-19T12:49:58.218Z,9.33
2018-07-19T12:52:26.247Z,8.73
2018-07-19T12:54:54.029Z,8.18
2018-07-19T12:57:21.820Z,10.68
2018-07-19T12:59:49.564Z,12.88
2018-07-19T13:02:17.451Z,10.40
2018-07-19T13:04:45.979Z,8.33
2018-07-19T13:07:13.853Z,11.18
2018-07-19T13:09:41.564Z,8.53
2018-07-19T13:12:09.743Z,12.40
2018-07-19T13:14:38.406Z,9.45
2018-07-19T13:17:06.309Z,8.85
2018-07-19T13:19:34.333Z,8.25
2018-07-19T13:22:02.459Z,9.38
2018-07-19T13:24:30.635Z,8.40
2018-07-19T13:26:58.838Z,10.60
2018-07-19T13:29:26.989Z,8.28
2018-07-19T13:31:54.725Z,9.63
2018-07-19T13:34:25.300Z,9.55
2018-07-19T13:36:53.233Z,8.78
2018-07-19T13:39:21.577Z,10.95
2018-07-19T13:41:49.299Z,8.10
2018-07-19T13:44:17.033Z,9.48
2018-07-19T13:46:44.811Z,8.85
2018-07-19T13:49:12.646Z,9.23
2018-07-19T13:51:40.523Z,13.03
2018-07-19T13:54:20.354Z,9.88
2018-07-19T13:56:48.336Z,7.50
2018-07-19T13:59:16.871Z,11.30
2018-07-19T14:01:44.756Z,9.23
2018-07-19T14:04:12.811Z,9.28
2018-07-19T14:06:40.864Z,12.73
2018-07-19T14:09:12.693Z,11.25
2018-07-19T14:11:40.692Z,8.10
2018-07-19T14:14:08.696Z,10.38
2018-07-19T14:16:36.690Z,8.58
2018-07-19T14:19:04.888Z,7.75
2018-07-19T14:21:32.776Z,9.10
2018-07-19T14:24:00.633Z,8.55
2018-07-19T14:26:28.522Z,9.90
2018-07-19T14:28:56.412Z,13.72
2018-07-19T14:31:24.336Z,11.97
2018-07-19T14:33:52.185Z,9.18
2018-07-19T14:36:20.097Z,10.05
2018-07-19T14:38:48.018Z,10.45
2018-07-19T14:41:16.238Z,9.10
2018-07-19T14:43:44.181Z,8.73
2018-07-19T14:46:12.249Z,8.80
2018-07-19T14:48:40.148Z,12.90
2018-07-19T14:51:08.603Z,12.03
2018-07-19T14:53:36.669Z,10.82
2018-07-19T14:56:04.709Z,11.30
2018-07-19T14:58:32.609Z,11.10
2018-07-19T15:01:00.565Z,12.75
2018-07-19T15:03:28.436Z,12.68
2018-07-19T15:05:56.296Z,10.03
2018-07-19T15:08:24.191Z,9.90
2018-07-19T15:10:52.290Z,8.93
2018-07-19T15:13:20.158Z,10.35
2018-07-19T15:15:48.103Z,10.48
2018-07-19T15:18:16.083Z,8.85
2018-07-19T15:20:43.927Z,8.70
2018-07-19T15:23:11.980Z,9.58
2018-07-19T15:25:39.884Z,11.12
2018-07-19T15:28:07.813Z,7.70
2018-07-19T15:30:35.764Z,8.23
2018-07-19T15:33:03.634Z,6.70
2018-07-19T15:35:31.528Z,5.83
2018-07-19T15:37:59.416Z,8.78
2018-07-19T15:40:27.288Z,7.28
2018-07-19T15:42:55.132Z,8.05
2018-07-19T15:45:23.050Z,7.15
2018-07-19T15:47:50.964Z,8.78
2018-07-19T15:50:18.853Z,8.45
2018-07-19T15:52:46.735Z,6.95
2018-07-19T15:55:14.712Z,6.60
2018-07-19T15:57:42.525Z,7.53
2018-07-19T16:00:10.515Z,6.37
2018-07-19T16:02:38.677Z,6.30
2018-07-19T16:05:06.924Z,8.40
2018-07-19T16:07:35.396Z,10.18
2018-07-19T16:10:03.597Z,5.55
2018-07-19T16:12:31.517Z,6.10
2018-07-19T16:14:59.447Z,4.50
2018-07-19T16:17:28.653Z,4.83
2018-07-19T16:19:56.795Z,5.25
2018-07-19T16:22:24.711Z,8.30
2018-07-19T16:24:52.557Z,4.97
2018-07-19T16:27:20.384Z,4.55
2018-07-19T16:29:49.116Z,4.87
2018-07-19T16:32:16.977Z,7.72
2018-07-19T16:34:44.852Z,6.42
2018-07-19T16:37:12.731Z,5.90
2018-07-19T16:39:40.562Z,7.05
2018-07-19T16:42:08.546Z,5.83
2018-07-19T16:44:36.411Z,3.92
2018-07-19T16:47:04.359Z,4.05
2018-07-19T16:49:32.213Z,4.25
2018-07-19T16:52:00.122Z,4.87
2018-07-19T16:54:27.963Z,7.03
2018-07-19T16:56:55.915Z,4.80
2018-07-19T16:59:23.769Z,3.60
2018-07-19T17:01:51.661Z,5.42
2018-07-19T17:04:19.304Z,3.17
2018-07-19T17:06:46.948Z,5.28
2018-07-19T17:09:14.525Z,4.35
2018-07-19T17:11:42.129Z,5.28
2018-07-19T17:14:09.838Z,7.53
2018-07-19T17:16:37.442Z,3.85
2018-07-19T17:19:05.323Z,2.92
2018-07-19T17:21:32.959Z,2.90
2018-07-19T17:24:00.589Z,6.85
2018-07-19T17:26:28.197Z,8.55
2018-07-19T17:28:55.942Z,4.33
2018-07-19T17:31:23.557Z,3.40
2018-07-19T17:33:51.204Z,6.50
2018-07-19T17:36:18.801Z,4.12
2018-07-19T17:38:46.493Z,4.17
2018-07-19T17:41:14.133Z,3.27
2018-07-19T17:43:41.771Z,3.87
2018-07-19T17:46:09.397Z,2.50
2018-07-19T17:48:37.021Z,4.85
2018-07-19T17:51:04.683Z,4.80
2018-07-19T17:53:32.477Z,6.55
2018-07-19T17:56:00.100Z,4.62
2018-07-19T17:58:27.727Z,2.40
2018-07-19T18:00:55.462Z,4.17
2018-07-19T18:03:23.111Z,2.70
2018-07-19T18:05:50.742Z,2.58
2018-07-19T18:08:18.311Z,4.20
2018-07-19T18:10:45.949Z,4.47
2018-07-19T18:13:13.596Z,2.62
2018-07-19T18:15:41.236Z,7.10
2018-07-19T18:18:08.877Z,2.12
2018-07-19T18:20:36.558Z,2.30
2018-07-19T18:23:04.226Z,3.95
2018-07-19T18:25:31.852Z,2.47
2018-07-19T18:27:59.503Z,3.72
2018-07-19T18:30:27.196Z,3.80
2018-07-19T18:32:54.825Z,5.40
2018-07-19T18:35:22.458Z,4.15
2018-07-19T18:37:50.081Z,2.65
2018-07-19T18:40:17.725Z,2.27
2018-07-19T18:42:45.464Z,3.42
2018-07-19T18:45:13.074Z,2.60
2018-07-19T18:47:40.709Z,7.30
2018-07-19T18:50:08.375Z,4.03
2018-07-19T18:52:35.989Z,2.17
2018-07-19T18:55:03.694Z,4.73
2018-07-19T18:57:31.356Z,1.63
2018-07-19T18:59:59.056Z,3.50
2018-07-19T19:02:26.744Z,2.10
2018-07-19T19:04:54.430Z,2.70
2018-07-19T19:07:22.184Z,2.07
2018-07-19T19:09:49.814Z,1.40
2018-07-19T19:12:17.469Z,1.63
2018-07-19T19:14:45.101Z,2.60
2018-07-19T19:17:12.722Z,1.17
2018-07-19T19:19:40.359Z,1.30
2018-07-19T19:22:08.010Z,3.23
2018-07-19T19:24:35.608Z,2.47
2018-07-19T19:27:03.264Z,6.60
2018-07-19T19:29:30.800Z,4.00
2018-07-19T19:31:58.398Z,1.33
2018-07-19T19:34:26.093Z,1.30
2018-07-19T19:36:53.913Z,8.23
2018-07-19T19:39:21.495Z,4.47
2018-07-19T19:41:49.140Z,3.07
2018-07-19T19:44:16.806Z,1.20
2018-07-19T19:46:44.419Z,1.23
2018-07-19T19:49:12.114Z,1.37
2018-07-19T19:51:39.758Z,2.37
2018-07-19T19:54:07.376Z,0.93
2018-07-19T19:56:34.930Z,2.70
2018-07-19T19:59:02.554Z,5.77
2018-07-19T20:01:30.171Z,2.40
2018-07-19T20:03:58.916Z,1.23
2018-07-19T20:06:26.650Z,4.67
2018-07-19T20:08:56.575Z,2.70
2018-07-19T20:11:25.917Z,1.77
2018-07-19T20:13:53.487Z,1.80
2018-07-19T20:16:21.162Z,1.70
2018-07-19T20:18:48.787Z,1.70
2018-07-19T20:21:16.399Z,1.30
2018-07-19T20:23:44.020Z,1.93
2018-07-19T20:26:11.664Z,1.53
2018-07-19T20:28:39.308Z,3.03
2018-07-19T20:31:07.406Z,0.93
2018-07-19T20:33:35.061Z,3.40
2018-07-19T20:36:02.679Z,2.07
2018-07-19T20:38:30.318Z,2.23
2018-07-19T20:40:57.938Z,4.07
2018-07-19T20:43:25.612Z,3.00
2018-07-19T20:45:53.180Z,6.00
2018-07-19T20:48:20.814Z,3.93
2018-07-19T20:50:48.473Z,6.00
2018-07-19T20:53:16.096Z,1.73
2018-07-19T20:55:43.765Z,5.20
2018-07-19T20:58:11.402Z,2.90
2018-07-19T21:00:39.005Z,1.70
2018-07-19T21:03:06.654Z,7.30
2018-07-19T21:05:34.293Z,3.90
2018-07-19T21:08:01.937Z,4.03
2018-07-19T21:10:29.549Z,2.47
2018-07-19T21:12:57.179Z,4.27
2018-07-19T21:15:24.801Z,2.17
2018-07-19T21:17:52.409Z,1.33
2018-07-19T21:20:20.059Z,1.23
2018-07-19T21:22:47.658Z,1.53
2018-07-19T21:25:15.275Z,2.40
2018-07-19T21:27:42.965Z,1.50
2018-07-19T21:30:10.593Z,4.03
2018-07-19T21:32:38.191Z,4.97
2018-07-19T21:35:05.829Z,3.23
2018-07-19T21:37:33.431Z,3.47
2018-07-19T21:40:01.059Z,1.97
2018-07-19T21:42:28.682Z,2.33
2018-07-19T21:44:56.306Z,4.23
2018-07-19T21:47:24.406Z,1.30
2018-07-19T21:49:52.100Z,2.93
2018-07-19T21:52:19.753Z,2.07
2018-07-19T21:54:47.368Z,2.97
2018-07-19T21:57:14.996Z,2.50
2018-07-19T21:59:42.604Z,4.93
2018-07-19T22:02:12.546Z,2.50
2018-07-19T22:04:40.217Z,5.00
2018-07-19T22:07:07.865Z,2.80
2018-07-19T22:09:35.615Z,3.87
2018-07-19T22:12:03.265Z,9.37
2018-07-19T22:14:30.902Z,2.07
2018-07-19T22:16:58.607Z,5.60
2018-07-19T22:19:26.212Z,2.83
2018-07-19T22:21:53.845Z,3.57
2018-07-19T22:24:21.457Z,1.93
2018-07-19T22:26:49.077Z,3.30
2018-07-19T22:29:16.723Z,2.90
2018-07-19T22:31:44.323Z,2.67
2018-07-19T22:34:11.919Z,1.77
2018-07-19T22:36:39.533Z,2.37
2018-07-19T22:39:09.127Z,2.07
2018-07-19T22:41:36.732Z,2.57
2018-07-19T22:44:04.349Z,1.53
2018-07-19T22:46:32.012Z,2.60
2018-07-19T22:48:59.655Z,2.83
2018-07-19T22:51:27.283Z,2.20
2018-07-19T22:53:54.913Z,3.73
2018-07-19T22:56:22.613Z,1.87
2018-07-19T22:58:50.244Z,4.00
2018-07-19T23:01:17.869Z,17.60
2018-07-19T23:03:45.519Z,3.20
2018-07-19T23:06:13.103Z,2.27
2018-07-19T23:08:40.698Z,1.40
2018-07-19T23:11:08.307Z,3.77
2018-07-19T23:13:35.942Z,2.43
2018-07-19T23:16:03.552Z,5.83
2018-07-19T23:18:31.414Z,5.03
2018-07-19T23:20:59.066Z,4.33
2018-07-19T23:23:26.687Z,2.20
2018-07-19T23:25:54.329Z,4.20
2018-07-19T23:28:21.972Z,5.80
2018-07-19T23:30:49.640Z,2.67
2018-07-19T23:33:17.323Z,4.10
2018-07-19T23:35:48.048Z,3.83
2018-07-19T23:38:50.548Z,4.90
2018-07-19T23:41:27.300Z,3.20
2018-07-19T23:43:58.884Z,9.70
2018-07-19T23:46:31.938Z,2.40
2018-07-19T23:49:06.005Z,5.60
2018-07-19T23:51:34.522Z,6.93
2018-07-19T23:54:02.115Z,2.70
2018-07-19T23:56:29.765Z,4.13
2018-07-19T23:58:57.286Z,7.30
